Haga-Haga, South Africa
Current Conditions -  °F | °C
As of 8:00 PM on Friday 28 Nov 2014 (Local Time) from FAEL Reporting Station
Scattered Clouds Scattered Clouds  
Wind Chill: 63°   Ceiling: Unl
Heat Index: 63°   Visibility: 6mi
Dew Point: 59°   Wind: 6mph
Humidity: 88%   Direction: 240°WSW
Pressure: 30.12"   Gusts: NA
Location:  32.75°S, 28.25°E
Report Text: FAEL 281800Z 24005KT 220V280 9999 FEW023 SCT034 17/15 Q1020
Loading
Personal Weather Stations






























Interactive Weather Map New forecast layout! Learn more

10-Day Weather Forecast

Advertisements
Track Severe Weather on mobile